createdAt,value
2018-06-03T00:00:05.017Z,10.17
2018-06-03T00:02:38.357Z,9.03
2018-06-03T00:05:07.421Z,10.53
2018-06-03T00:07:48.599Z,9.63
2018-06-03T00:10:17.187Z,10.17
2018-06-03T00:12:45.928Z,10.03
2018-06-03T00:15:14.523Z,8.83
2018-06-03T00:17:45.533Z,9.47
2018-06-03T00:20:14.747Z,10.10
2018-06-03T00:22:47.290Z,10.83
2018-06-03T00:25:15.927Z,10.73
2018-06-03T00:27:48.495Z,9.80
2018-06-03T00:30:18.182Z,9.77
2018-06-03T00:35:22.612Z,11.77
2018-06-03T00:37:54.526Z,11.40
2018-06-03T00:40:23.537Z,10.70
2018-06-03T00:42:58.777Z,11.30
2018-06-03T00:45:27.155Z,11.17
2018-06-03T00:47:59.999Z,11.67
2018-06-03T00:50:29.105Z,10.60
2018-06-03T00:53:10.960Z,11.30
2018-06-03T00:55:39.182Z,11.77
2018-06-03T00:58:07.938Z,10.63
2018-06-03T01:00:36.143Z,13.13
2018-06-03T01:03:09.284Z,12.00
2018-06-03T01:05:39.274Z,11.70
2018-06-03T01:08:20.583Z,12.03
2018-06-03T01:10:49.136Z,12.03
2018-06-03T01:13:17.850Z,12.87
2018-06-03T01:15:46.076Z,12.87
2018-06-03T01:18:17.961Z,12.20
2018-06-03T01:20:46.155Z,11.53
2018-06-03T01:23:19.506Z,13.13
2018-06-03T01:25:48.114Z,13.50
2018-06-03T01:28:19.873Z,12.53
2018-06-03T01:30:49.397Z,12.47
2018-06-03T01:33:25.069Z,13.13
2018-06-03T01:35:53.744Z,13.70
2018-06-03T01:38:25.333Z,13.70
2018-06-03T01:40:54.898Z,13.33
2018-06-03T01:50:15.642Z,12.97
2018-06-03T01:52:43.929Z,13.93
2018-06-03T01:55:12.562Z,14.80
2018-06-03T02:00:09.910Z,14.17
2018-06-03T02:02:38.215Z,13.37
2018-06-03T02:05:06.850Z,14.13
2018-06-03T02:07:38.989Z,14.27
2018-06-03T02:10:07.705Z,14.20
2018-06-03T02:12:41.237Z,15.03
2018-06-03T02:15:09.508Z,14.40
2018-06-03T02:17:43.022Z,14.77
2018-06-03T02:20:11.733Z,15.33
2018-06-03T02:22:44.590Z,15.00
2018-06-03T02:25:12.874Z,15.33
2018-06-03T02:27:46.052Z,14.07
2018-06-03T02:30:14.684Z,15.13
2018-06-03T02:32:46.103Z,15.23
2018-06-03T02:35:16.533Z,15.33
2018-06-03T02:37:44.783Z,16.13
2018-06-03T02:40:14.403Z,15.17
2018-06-03T02:42:43.393Z,15.30
2018-06-03T02:45:11.604Z,15.60
2018-06-03T02:47:40.152Z,15.83
2018-06-03T02:50:09.065Z,16.73
2018-06-03T02:52:37.626Z,15.83
2018-06-03T02:55:06.245Z,15.50
2018-06-03T02:57:35.303Z,16.70
2018-06-03T03:00:04.360Z,15.83
2018-06-03T03:02:32.920Z,16.30
2018-06-03T03:05:05.622Z,16.47
2018-06-03T03:07:34.154Z,16.90
2018-06-03T03:10:02.696Z,15.70
2018-06-03T03:12:31.673Z,17.10
2018-06-03T03:15:00.301Z,17.13
2018-06-03T03:17:28.832Z,15.90
2018-06-03T03:19:57.601Z,15.83
2018-06-03T03:22:26.211Z,16.73
2018-06-03T03:24:54.775Z,17.17
2018-06-03T03:27:23.700Z,17.03
2018-06-03T03:29:51.913Z,16.77
2018-06-03T03:32:20.502Z,16.33
2018-06-03T03:34:50.992Z,17.13
2018-06-03T03:37:22.545Z,17.23
2018-06-03T03:39:50.759Z,16.07
2018-06-03T03:42:24.656Z,16.10
2018-06-03T03:44:53.886Z,16.83
2018-06-03T03:47:25.329Z,16.43
2018-06-03T03:49:54.136Z,17.37
2018-06-03T03:52:27.404Z,16.07
2018-06-03T03:54:55.946Z,16.30
2018-06-03T03:57:29.190Z,16.60
2018-06-03T03:59:57.706Z,17.13
2018-06-03T04:02:30.540Z,17.43
2018-06-03T04:04:59.280Z,16.77
2018-06-03T04:07:31.953Z,15.87
2018-06-03T04:10:00.497Z,15.33
2018-06-03T04:12:29.481Z,16.63
2018-06-03T04:14:58.224Z,15.40
2018-06-03T04:17:26.414Z,15.23
2018-06-03T04:19:55.360Z,14.83
2018-06-03T04:22:25.420Z,15.00
2018-06-03T04:24:53.972Z,13.90
2018-06-03T04:27:22.952Z,13.70
2018-06-03T04:29:51.172Z,13.10
2018-06-03T04:32:19.799Z,14.00
2018-06-03T04:34:48.710Z,15.17
2018-06-03T04:37:16.981Z,14.40
2018-06-03T04:39:52.541Z,14.13
2018-06-03T04:42:21.501Z,14.30
2018-06-03T04:44:51.657Z,14.60
2018-06-03T04:47:20.254Z,14.40
2018-06-03T04:49:53.840Z,14.83
2018-06-03T04:52:22.072Z,13.77
2018-06-03T04:54:51.904Z,13.60
2018-06-03T04:57:23.694Z,12.90
2018-06-03T04:59:51.908Z,13.30
2018-06-03T05:02:20.828Z,13.03
2018-06-03T05:04:49.428Z,13.40
2018-06-03T05:07:17.639Z,14.47
2018-06-03T05:09:46.668Z,12.97
2018-06-03T05:12:15.312Z,14.00
2018-06-03T05:14:43.851Z,12.70
2018-06-03T05:17:12.569Z,12.67
2018-06-03T05:22:01.576Z,12.77
2018-06-03T05:24:30.476Z,11.73
2018-06-03T05:26:59.274Z,12.63
2018-06-03T05:29:27.884Z,12.67
2018-06-03T05:31:56.811Z,12.27
2018-06-03T05:34:25.356Z,13.20
2018-06-03T05:36:54.042Z,13.00
2018-06-03T05:39:23.262Z,12.93
2018-06-03T05:41:51.493Z,13.20
2018-06-03T05:44:24.033Z,13.70
2018-06-03T05:46:53.015Z,13.40
2018-06-03T05:49:25.512Z,13.13
2018-06-03T05:51:54.143Z,12.77
2018-06-03T05:54:26.325Z,13.23
2018-06-03T05:56:54.853Z,13.53
2018-06-03T05:59:27.569Z,13.53
2018-06-03T06:01:56.720Z,14.23
2018-06-03T06:04:31.849Z,12.93
2018-06-03T06:07:01.233Z,13.10
2018-06-03T06:09:33.320Z,13.43
2018-06-03T06:12:01.548Z,12.33
2018-06-03T06:14:35.092Z,11.87
2018-06-03T06:17:03.971Z,13.17
2018-06-03T06:19:37.253Z,13.70
2018-06-03T06:22:05.984Z,12.43
2018-06-03T06:24:39.368Z,13.13
2018-06-03T06:27:07.912Z,12.83
2018-06-03T06:29:42.916Z,13.00
2018-06-03T06:32:11.845Z,12.60
2018-06-03T06:34:43.267Z,13.03
2018-06-03T06:37:11.456Z,12.63
2018-06-03T06:39:44.681Z,13.53
2018-06-03T06:42:12.915Z,13.43
2018-06-03T06:44:41.500Z,12.70
2018-06-03T06:47:10.704Z,12.60
2018-06-03T06:49:39.311Z,13.05
2018-06-03T06:52:09.371Z,13.45
2018-06-03T06:54:38.963Z,15.08
2018-06-03T06:57:07.247Z,15.08
2018-06-03T06:59:35.796Z,15.20
2018-06-03T07:02:05.125Z,14.85
2018-06-03T07:04:34.632Z,14.78
2018-06-03T07:07:03.331Z,15.45
2018-06-03T07:09:31.623Z,14.87
2018-06-03T07:12:12.941Z,16.62
2018-06-03T07:14:41.652Z,15.93
2018-06-03T07:17:10.338Z,14.93
2018-06-03T07:19:38.877Z,15.48
2018-06-03T07:22:09.535Z,15.05
2018-06-03T07:24:38.648Z,15.75
2018-06-03T07:27:20.238Z,16.12
2018-06-03T07:29:48.745Z,15.58
2018-06-03T07:32:16.923Z,15.50
2018-06-03T07:34:45.528Z,15.85
2018-06-03T07:37:16.546Z,15.80
2018-06-03T07:39:45.120Z,15.20
2018-06-03T07:42:17.849Z,15.72
2018-06-03T07:44:46.434Z,16.65
2018-06-03T07:47:19.353Z,17.27
2018-06-03T07:49:47.901Z,15.95
2018-06-03T07:52:23.652Z,14.75
2018-06-03T07:54:51.881Z,13.53
2018-06-03T07:57:32.937Z,13.00
2018-06-03T08:02:38.600Z,13.68
2018-06-03T08:05:06.998Z,13.90
2018-06-03T08:07:35.360Z,14.13
2018-06-03T08:10:04.329Z,14.83
2018-06-03T08:12:33.284Z,14.83
2018-06-03T08:15:01.496Z,15.95
2018-06-03T08:17:35.171Z,16.77
2018-06-03T08:20:03.824Z,15.68
2018-06-03T08:22:44.433Z,13.48
2018-06-03T08:25:13.237Z,12.35
2018-06-03T08:27:41.840Z,11.55
2018-06-03T08:30:10.084Z,14.13
2018-06-03T08:32:42.382Z,12.45
2018-06-03T08:35:10.978Z,11.85
2018-06-03T08:37:51.974Z,12.90
2018-06-03T08:40:20.925Z,11.45
2018-06-03T08:42:49.562Z,9.90
2018-06-03T08:45:18.183Z,9.85
2018-06-03T08:47:49.104Z,10.95
2018-06-03T08:50:17.725Z,10.82
2018-06-03T08:52:51.484Z,10.93
2018-06-03T08:55:20.371Z,11.33
2018-06-03T08:57:52.884Z,10.68
2018-06-03T09:00:21.641Z,12.88
2018-06-03T09:02:54.654Z,13.10
2018-06-03T09:05:22.866Z,12.85
2018-06-03T09:07:51.397Z,13.85
2018-06-03T09:10:19.899Z,12.63
2018-06-03T09:12:48.438Z,11.20
2018-06-03T09:15:16.684Z,12.20
2018-06-03T09:17:45.516Z,11.95
2018-06-03T09:20:14.154Z,12.63
2018-06-03T09:22:43.091Z,12.35
2018-06-03T09:25:12.195Z,11.12
2018-06-03T09:27:40.795Z,11.55
2018-06-03T09:30:13.013Z,11.83
2018-06-03T09:32:41.575Z,12.30
2018-06-03T09:35:22.975Z,13.30
2018-06-03T09:37:51.525Z,12.30
2018-06-03T09:40:20.126Z,11.80
2018-06-03T09:42:49.705Z,11.08
2018-06-03T09:45:19.259Z,11.45
2018-06-03T09:47:47.454Z,11.83
2018-06-03T09:50:21.165Z,11.50
2018-06-03T09:52:50.172Z,11.28
2018-06-03T09:55:31.713Z,11.25
2018-06-03T09:58:00.721Z,11.08
2018-06-03T10:00:33.021Z,10.93
2018-06-03T10:03:03.300Z,12.18
2018-06-03T10:05:31.860Z,11.43
2018-06-03T10:08:00.062Z,12.35
2018-06-03T10:10:30.157Z,12.13
2018-06-03T10:12:58.986Z,11.85
2018-06-03T10:15:30.588Z,12.23
2018-06-03T10:17:59.149Z,10.90
2018-06-03T10:20:40.332Z,10.18
2018-06-03T10:23:08.964Z,10.75
2018-06-03T10:25:37.472Z,10.43
2018-06-03T10:28:06.089Z,9.90
2018-06-03T10:30:38.800Z,10.45
2018-06-03T10:33:07.416Z,10.55
2018-06-03T10:35:48.701Z,10.18
2018-06-03T10:38:17.247Z,10.70
2018-06-03T10:40:45.823Z,9.95
2018-06-03T10:43:14.358Z,10.03
2018-06-03T10:45:45.094Z,9.25
2018-06-03T10:48:13.699Z,9.03
2018-06-03T10:50:54.816Z,8.58
2018-06-03T10:53:23.682Z,9.28
2018-06-03T10:55:51.933Z,10.25
2018-06-03T10:58:20.480Z,9.70
2018-06-03T11:00:52.146Z,7.97
2018-06-03T11:03:20.783Z,8.73
2018-06-03T11:05:53.857Z,9.38
2018-06-03T11:08:23.396Z,9.28
2018-06-03T11:11:04.444Z,8.85
2018-06-03T11:13:33.277Z,9.20
2018-06-03T11:16:01.519Z,9.38
2018-06-03T11:18:36.733Z,8.50
2018-06-03T11:21:05.612Z,8.88
2018-06-03T11:23:35.189Z,7.72
2018-06-03T11:26:05.101Z,10.30
2018-06-03T11:28:33.976Z,9.00
2018-06-03T11:31:06.405Z,8.50
2018-06-03T11:33:35.108Z,7.75
2018-06-03T11:36:10.761Z,8.30
2018-06-03T11:38:39.373Z,8.95
2018-06-03T11:41:20.734Z,9.28
2018-06-03T11:43:49.606Z,8.53
2018-06-03T11:46:18.288Z,7.50
2018-06-03T11:48:46.882Z,7.80
2018-06-03T11:51:16.763Z,8.00
2018-06-03T11:53:45.005Z,8.73
2018-06-03T11:56:17.807Z,9.03
2018-06-03T11:58:59.413Z,8.95
2018-06-03T12:01:27.973Z,8.43
2018-06-03T12:03:56.842Z,7.25
2018-06-03T12:06:25.065Z,8.15
2018-06-03T12:08:53.616Z,8.43
2018-06-03T12:11:26.438Z,8.73
2018-06-03T12:13:55.033Z,9.40
2018-06-03T12:16:36.033Z,9.25
2018-06-03T12:19:04.985Z,9.23
2018-06-03T12:21:33.609Z,9.90
2018-06-03T12:24:01.822Z,9.25
2018-06-03T12:26:31.702Z,9.08
2018-06-03T12:29:00.267Z,9.80
2018-06-03T12:31:33.916Z,9.23
2018-06-03T12:34:02.387Z,9.23
2018-06-03T12:36:35.336Z,10.32
2018-06-03T12:39:06.034Z,9.83
2018-06-03T12:41:38.691Z,8.55
2018-06-03T12:44:06.936Z,9.18
2018-06-03T12:46:39.494Z,8.48
2018-06-03T12:49:08.366Z,9.10
2018-06-03T12:51:40.591Z,10.15
2018-06-03T12:54:09.178Z,11.43
2018-06-03T12:56:42.986Z,10.65
2018-06-03T12:59:11.215Z,12.20
2018-06-03T13:01:39.873Z,12.60
2018-06-03T13:04:08.787Z,10.80
2018-06-03T13:06:37.052Z,11.95
2018-06-03T13:09:06.813Z,11.80
2018-06-03T13:11:35.312Z,11.53
2018-06-03T13:14:03.959Z,12.43
2018-06-03T13:16:32.155Z,12.33
2018-06-03T13:19:01.025Z,10.28
2018-06-03T13:21:29.805Z,10.90
2018-06-03T13:23:58.476Z,10.75
2018-06-03T13:26:26.964Z,11.57
2018-06-03T13:28:59.729Z,9.28
2018-06-03T13:31:28.284Z,9.80
2018-06-03T13:33:56.764Z,10.23
2018-06-03T13:36:25.610Z,10.18
2018-06-03T13:38:54.178Z,10.43
2018-06-03T13:41:23.009Z,9.80
2018-06-03T13:43:51.221Z,9.75
2018-06-03T13:46:19.824Z,14.58
2018-06-03T13:48:48.473Z,12.70
2018-06-03T13:51:16.712Z,13.25
2018-06-03T13:53:45.215Z,12.93
2018-06-03T13:56:14.668Z,13.18
2018-06-03T13:58:43.329Z,12.20
2018-06-03T14:01:24.675Z,11.48
2018-06-03T14:03:52.882Z,12.70
2018-06-03T14:06:22.180Z,12.73
2018-06-03T14:08:50.785Z,13.05
2018-06-03T14:11:21.286Z,12.50
2018-06-03T14:13:49.921Z,12.85
2018-06-03T14:16:31.292Z,13.70
2018-06-03T14:18:59.919Z,15.03
2018-06-03T14:21:28.494Z,13.70
2018-06-03T14:23:56.704Z,13.85
2018-06-03T14:26:28.374Z,13.50
2018-06-03T14:28:56.580Z,14.38
2018-06-03T14:31:32.220Z,13.72
2018-06-03T14:34:00.801Z,14.95
2018-06-03T14:36:33.004Z,14.65
2018-06-03T14:39:01.912Z,14.03
2018-06-03T14:41:43.084Z,14.35
2018-06-03T14:44:11.938Z,14.45
2018-06-03T14:46:40.521Z,15.15
2018-06-03T14:49:09.157Z,13.85
2018-06-03T14:51:37.763Z,15.20
2018-06-03T14:54:06.698Z,14.18
2018-06-03T14:59:17.011Z,14.60
2018-06-03T15:01:45.253Z,13.62
2018-06-03T15:04:13.829Z,13.90
2018-06-03T15:06:46.103Z,14.98
2018-06-03T15:09:14.728Z,14.53
2018-06-03T15:11:47.474Z,15.32
2018-06-03T15:14:16.736Z,17.67
2018-06-03T15:16:51.974Z,16.23
2018-06-03T15:19:20.588Z,17.15
2018-06-03T15:21:53.349Z,18.25
2018-06-03T15:24:21.954Z,16.97
2018-06-03T15:26:55.354Z,19.60
2018-06-03T15:29:23.935Z,18.60
2018-06-03T15:34:25.880Z,19.33
2018-06-03T15:36:58.845Z,19.67
2018-06-03T15:39:27.364Z,17.92
2018-06-03T15:41:56.324Z,19.85
2018-06-03T15:44:24.900Z,18.87
2018-06-03T15:46:53.751Z,18.80
2018-06-03T15:49:22.927Z,19.62
2018-06-03T15:51:51.648Z,20.25
2018-06-03T15:54:20.376Z,19.50
2018-06-03T15:56:48.580Z,19.62
2018-06-03T15:59:17.154Z,19.95
2018-06-03T16:01:46.243Z,19.92
2018-06-03T16:04:14.574Z,17.98
2018-06-03T16:06:42.838Z,19.92
2018-06-03T16:09:17.740Z,20.32
2018-06-03T16:11:46.348Z,21.12
2018-06-03T16:14:18.308Z,22.95
2018-06-03T16:16:46.857Z,22.35
2018-06-03T16:19:18.791Z,22.32
2018-06-03T16:21:48.182Z,22.67
2018-06-03T16:24:16.524Z,23.85
2018-06-03T16:26:45.113Z,23.57
2018-06-03T16:29:13.576Z,24.85
2018-06-03T16:31:42.197Z,25.20
2018-06-03T16:34:11.010Z,25.50
2018-06-03T16:36:39.589Z,25.27
2018-06-03T16:39:07.815Z,26.27
2018-06-03T16:41:36.492Z,24.98
2018-06-03T16:44:05.340Z,24.03
2018-06-03T16:46:34.304Z,26.12
2018-06-03T16:49:02.620Z,27.27
2018-06-03T16:51:35.194Z,29.90
2018-06-03T16:54:03.758Z,29.63
2018-06-03T16:56:37.046Z,30.50
2018-06-03T16:59:06.264Z,29.23
2018-06-03T17:01:39.024Z,27.97
2018-06-03T17:04:07.320Z,28.70
2018-06-03T17:06:35.900Z,26.43
2018-06-03T17:09:05.932Z,25.77
2018-06-03T17:11:34.168Z,25.47
2018-06-03T17:14:02.705Z,25.03
2018-06-03T17:16:30.914Z,24.90
2018-06-03T17:18:59.168Z,24.15
2018-06-03T17:21:27.645Z,25.67
2018-06-03T17:23:56.648Z,25.97
2018-06-03T17:26:25.032Z,25.37
2018-06-03T17:28:54.260Z,26.85
2018-06-03T17:31:22.492Z,26.77
2018-06-03T17:33:55.786Z,25.30
2018-06-03T17:36:24.903Z,26.80
2018-06-03T17:38:58.525Z,28.07
2018-06-03T17:41:27.165Z,28.00
2018-06-03T17:44:00.893Z,28.92
2018-06-03T17:46:29.553Z,27.70
2018-06-03T17:55:45.902Z,27.17
2018-06-03T17:58:14.489Z,27.53
2018-06-03T18:00:43.268Z,25.63
2018-06-03T18:03:12.342Z,27.20
2018-06-03T18:05:42.591Z,25.63
2018-06-03T18:08:23.091Z,26.33
2018-06-03T18:10:51.619Z,26.67
2018-06-03T18:13:19.826Z,26.07
2018-06-03T18:15:48.055Z,26.30
2018-06-03T18:18:20.777Z,26.60
2018-06-03T18:20:49.538Z,27.57
2018-06-03T18:23:21.429Z,27.33
2018-06-03T18:25:50.293Z,27.77
2018-06-03T18:28:23.776Z,29.00
2018-06-03T18:30:52.384Z,27.90
2018-06-03T18:33:33.715Z,26.47
2018-06-03T18:36:01.982Z,27.60
2018-06-03T18:38:30.455Z,26.80
2018-06-03T18:40:59.404Z,26.47
2018-06-03T18:43:31.972Z,24.27
2018-06-03T18:46:00.798Z,25.37
2018-06-03T18:48:33.245Z,24.57
2018-06-03T18:51:01.452Z,26.27
2018-06-03T18:53:35.088Z,25.97
2018-06-03T18:56:03.396Z,26.20
2018-06-03T18:58:36.619Z,27.87
2018-06-03T19:01:05.493Z,28.20
2018-06-03T19:03:40.764Z,26.63
2018-06-03T19:06:08.992Z,26.13
2018-06-03T19:08:49.493Z,25.10
2018-06-03T19:11:17.786Z,25.77
2018-06-03T19:13:46.826Z,26.27
2018-06-03T19:16:15.042Z,26.60
2018-06-03T19:18:47.225Z,25.57
2018-06-03T19:21:15.772Z,26.57
2018-06-03T19:23:49.644Z,23.63
2018-06-03T19:26:18.432Z,24.77
2018-06-03T19:28:59.300Z,23.90
2018-06-03T19:31:27.516Z,25.03
2018-06-03T19:33:56.114Z,24.47
2018-06-03T19:36:25.928Z,24.90
2018-06-03T19:38:56.008Z,26.47
2018-06-03T19:41:24.565Z,25.73
2018-06-03T19:43:57.560Z,26.20
2018-06-03T19:46:26.133Z,25.80
2018-06-03T19:48:54.317Z,25.37
2018-06-03T19:51:22.800Z,25.37
2018-06-03T19:53:51.339Z,26.10
2018-06-03T19:56:19.849Z,24.33
2018-06-03T19:58:48.371Z,26.13
2018-06-03T20:01:16.942Z,25.07
2018-06-03T20:03:45.625Z,22.97
2018-06-03T20:06:14.222Z,25.00
2018-06-03T20:08:43.211Z,23.10
2018-06-03T20:11:12.637Z,24.47
2018-06-03T20:13:41.521Z,24.13
2018-06-03T20:16:15.565Z,23.70
2018-06-03T20:18:44.185Z,23.90
2018-06-03T20:21:25.608Z,23.60
2018-06-03T20:23:54.250Z,24.70
2018-06-03T20:26:22.514Z,23.60
2018-06-03T20:28:51.083Z,22.53
2018-06-03T20:31:23.349Z,23.40
2018-06-03T20:33:52.387Z,23.33
2018-06-03T20:36:33.493Z,22.97
2018-06-03T20:39:02.521Z,23.20
2018-06-03T20:41:31.140Z,23.60
2018-06-03T20:43:59.704Z,23.50
2018-06-03T20:46:30.724Z,23.40
2018-06-03T20:48:59.264Z,22.87
2018-06-03T20:51:31.185Z,23.23
2018-06-03T20:54:00.133Z,23.80
2018-06-03T20:56:32.931Z,24.73
2018-06-03T20:59:01.484Z,22.30
2018-06-03T21:01:35.864Z,23.40
2018-06-03T21:04:04.397Z,21.90
2018-06-03T21:06:36.981Z,22.33
2018-06-03T21:09:06.579Z,22.33
2018-06-03T21:11:41.435Z,23.17
2018-06-03T21:14:09.966Z,22.10
2018-06-03T21:16:41.609Z,22.50
2018-06-03T21:19:10.779Z,22.33
2018-06-03T21:21:44.553Z,21.90
2018-06-03T21:24:13.013Z,22.17
2018-06-03T21:26:46.449Z,23.47
2018-06-03T21:29:15.052Z,25.17
2018-06-03T21:31:48.622Z,22.67
2018-06-03T21:34:17.102Z,23.30
2018-06-03T21:36:49.972Z,24.17
2018-06-03T21:39:19.253Z,24.57
2018-06-03T21:41:49.661Z,24.00
2018-06-03T21:44:22.753Z,22.93
2018-06-03T21:46:55.600Z,22.20
2018-06-03T21:49:24.407Z,23.33
2018-06-03T21:54:32.332Z,23.10
2018-06-03T21:57:02.441Z,23.20
2018-06-03T21:59:31.009Z,21.93
2018-06-03T22:02:05.896Z,21.60
2018-06-03T22:04:34.122Z,23.43
2018-06-03T22:07:10.783Z,24.17
2018-06-03T22:09:40.046Z,24.80
2018-06-03T22:12:13.596Z,24.70
2018-06-03T22:14:42.176Z,24.30
2018-06-03T22:17:15.836Z,24.43
2018-06-03T22:19:44.721Z,24.57
2018-06-03T22:22:16.903Z,23.90
2018-06-03T22:24:45.494Z,24.40
2018-06-03T22:27:19.156Z,24.63
2018-06-03T22:29:47.849Z,24.00
2018-06-03T22:32:20.165Z,25.23
2018-06-03T22:34:48.809Z,26.27
2018-06-03T22:37:22.284Z,24.20
2018-06-03T22:39:50.866Z,26.00
2018-06-03T22:42:27.025Z,25.17
2018-06-03T22:44:57.616Z,25.40
2018-06-03T22:47:26.242Z,27.50
2018-06-03T22:49:55.144Z,26.07
2018-06-03T22:52:36.745Z,26.47
2018-06-03T22:55:05.038Z,25.00
2018-06-03T22:57:40.059Z,26.67
2018-06-03T23:00:09.282Z,26.50
2018-06-03T23:02:37.618Z,25.23
2018-06-03T23:05:06.241Z,25.13
2018-06-03T23:07:35.148Z,27.03
2018-06-03T23:10:03.775Z,26.57
2018-06-03T23:12:39.666Z,26.37
2018-06-03T23:15:07.889Z,24.77
2018-06-03T23:17:41.060Z,23.93
2018-06-03T23:20:10.324Z,24.13
2018-06-03T23:22:42.822Z,25.97
2018-06-03T23:25:11.392Z,25.97
2018-06-03T23:27:52.009Z,27.87
2018-06-03T23:30:20.701Z,27.07
2018-06-03T23:32:48.916Z,25.73
2018-06-03T23:35:18.190Z,28.47
2018-06-03T23:37:49.352Z,26.70
2018-06-03T23:40:17.591Z,26.17
2018-06-03T23:42:50.182Z,26.67
2018-06-03T23:45:19.351Z,27.30
2018-06-03T23:47:48.655Z,29.20
2018-06-03T23:50:20.764Z,29.10
2018-06-03T23:52:54.120Z,31.23
2018-06-03T23:55:22.375Z,29.70
2018-06-03T23:57:50.956Z,30.13
